createdAt,value
2022-12-23T00:00:57.930Z,9.90
2022-12-23T00:03:24.968Z,9.90
2022-12-23T00:05:52.103Z,9.87
2022-12-23T00:08:18.978Z,9.78
2022-12-23T00:10:46.070Z,9.81
2022-12-23T00:13:31.450Z,9.83
2022-12-23T00:16:09.792Z,9.98
2022-12-23T00:18:36.755Z,9.74
2022-12-23T00:21:09.315Z,10.03
2022-12-23T00:23:37.729Z,10.03
2022-12-23T00:26:04.726Z,10.02
2022-12-23T00:28:31.592Z,10.02
2022-12-23T00:31:05.478Z,10.01
2022-12-23T00:33:36.469Z,9.98
2022-12-23T00:36:10.652Z,9.97
2022-12-23T00:38:56.044Z,9.92
2022-12-23T00:41:41.803Z,9.87
2022-12-23T00:44:08.637Z,9.86
2022-12-23T00:46:35.470Z,9.82
2022-12-23T00:49:21.172Z,9.79
2022-12-23T00:51:48.109Z,9.75
2022-12-23T00:54:15.069Z,9.74
2022-12-23T00:56:41.977Z,9.74
2022-12-23T00:59:08.824Z,9.74
2022-12-23T01:01:54.598Z,9.57
2022-12-23T01:04:40.536Z,9.71
2022-12-23T01:07:07.539Z,9.52
2022-12-23T01:09:34.544Z,9.70
2022-12-23T01:12:01.440Z,9.69
2022-12-23T01:14:28.592Z,9.68
2022-12-23T01:16:55.487Z,9.68
2022-12-23T01:19:22.364Z,9.59
2022-12-23T01:21:49.243Z,9.66
2022-12-23T01:24:16.108Z,9.67
2022-12-23T01:26:42.949Z,9.67
2022-12-23T01:29:09.838Z,9.68
2022-12-23T01:31:36.743Z,9.69
2022-12-23T01:34:03.641Z,9.65
2022-12-23T01:36:30.576Z,9.69
2022-12-23T01:38:57.436Z,9.65
2022-12-23T01:41:44.948Z,9.61
2022-12-23T01:44:47.524Z,9.62
2022-12-23T01:47:17.295Z,9.60
2022-12-23T01:49:44.176Z,9.36
2022-12-23T01:52:11.037Z,9.56
2022-12-23T01:54:37.931Z,9.54
2022-12-23T01:57:04.766Z,9.55
2022-12-23T01:59:50.375Z,9.52
2022-12-23T02:02:35.811Z,9.52
2022-12-23T02:05:02.763Z,9.51
2022-12-23T02:07:48.532Z,9.49
2022-12-23T02:10:15.589Z,9.48
2022-12-23T02:12:50.599Z,9.06
2022-12-23T02:15:38.926Z,9.46
2022-12-23T02:18:24.543Z,9.45
2022-12-23T02:20:51.370Z,9.42
2022-12-23T02:23:40.376Z,9.43
2022-12-23T02:26:10.277Z,9.40
2022-12-23T02:29:22.826Z,9.37
2022-12-23T02:32:10.076Z,9.32
2022-12-23T02:35:02.279Z,9.29
2022-12-23T02:37:55.082Z,9.22
2022-12-23T02:40:24.586Z,9.18
2022-12-23T02:43:17.503Z,9.09
2022-12-23T02:46:16.862Z,9.15
2022-12-23T02:49:01.542Z,9.13
2022-12-23T02:51:33.691Z,9.06
2022-12-23T02:54:02.574Z,9.07
2022-12-23T02:56:30.655Z,9.02
2022-12-23T02:59:01.288Z,9.01
2022-12-23T03:01:28.299Z,8.99
2022-12-23T03:03:55.176Z,8.95
2022-12-23T03:06:24.407Z,8.93
2022-12-23T03:08:52.754Z,8.98
2022-12-23T03:11:19.649Z,9.05
2022-12-23T03:13:58.643Z,9.20
2022-12-23T03:16:50.038Z,9.32
2022-12-23T03:19:40.317Z,9.08
2022-12-23T03:22:14.863Z,9.60
2022-12-23T03:24:45.237Z,9.72
2022-12-23T03:27:43.161Z,9.92
2022-12-23T03:30:15.036Z,10.07
2022-12-23T03:33:02.915Z,10.05
2022-12-23T03:35:40.965Z,10.40
2022-12-23T03:38:08.099Z,10.52
2022-12-23T03:40:43.215Z,10.67
2022-12-23T03:43:17.539Z,10.67
2022-12-23T03:45:47.817Z,10.97
2022-12-23T03:48:36.048Z,10.92
2022-12-23T03:51:05.708Z,11.22
2022-12-23T03:53:35.154Z,11.34
2022-12-23T03:56:11.821Z,11.44
2022-12-23T03:58:56.359Z,11.58
2022-12-23T04:01:46.001Z,11.70
2022-12-23T04:04:18.123Z,11.83
2022-12-23T04:06:53.315Z,11.96
2022-12-23T04:09:22.298Z,12.07
2022-12-23T04:11:49.303Z,12.10
2022-12-23T04:14:19.829Z,12.07
2022-12-23T04:16:47.076Z,12.24
2022-12-23T04:19:13.940Z,12.51
2022-12-23T04:21:40.826Z,12.60
2022-12-23T04:24:07.939Z,12.72
2022-12-23T04:26:34.784Z,12.67
2022-12-23T04:29:01.689Z,12.69
2022-12-23T04:31:28.596Z,12.78
2022-12-23T04:33:55.537Z,13.04
2022-12-23T04:36:22.451Z,12.93
2022-12-23T04:38:49.302Z,13.26
2022-12-23T04:41:16.120Z,13.35
2022-12-23T04:43:45.440Z,13.45
2022-12-23T04:46:16.287Z,13.56
2022-12-23T04:48:43.176Z,13.63
2022-12-23T04:51:10.018Z,13.74
2022-12-23T04:53:37.305Z,13.64
2022-12-23T04:56:04.388Z,13.87
2022-12-23T04:58:31.338Z,13.97
2022-12-23T05:01:09.249Z,14.04
2022-12-23T05:03:36.846Z,14.09
2022-12-23T05:06:04.267Z,14.22
2022-12-23T05:08:31.245Z,14.26
2022-12-23T05:10:58.095Z,14.21
2022-12-23T05:13:25.058Z,14.45
2022-12-23T05:15:52.697Z,14.53
2022-12-23T05:18:19.871Z,14.45
2022-12-23T05:20:46.772Z,14.72
2022-12-23T05:23:13.697Z,14.80
2022-12-23T05:25:40.559Z,14.87
2022-12-23T05:28:10.392Z,14.97
2022-12-23T05:30:37.294Z,15.07
2022-12-23T05:33:04.201Z,15.14
2022-12-23T05:35:31.187Z,15.23
2022-12-23T05:37:58.475Z,15.29
2022-12-23T05:40:26.697Z,15.33
2022-12-23T05:42:56.175Z,15.42
2022-12-23T05:45:23.208Z,15.50
2022-12-23T05:47:50.054Z,15.55
2022-12-23T05:50:16.971Z,15.58
2022-12-23T05:52:43.895Z,15.63
2022-12-23T05:55:10.830Z,15.51
2022-12-23T05:57:37.673Z,15.71
2022-12-23T06:00:04.874Z,15.62
2022-12-23T06:02:39.366Z,15.86
2022-12-23T06:05:06.771Z,15.90
2022-12-23T06:07:33.589Z,15.98
2022-12-23T06:10:00.412Z,16.05
2022-12-23T06:12:27.316Z,16.09
2022-12-23T06:14:54.183Z,16.15
2022-12-23T06:17:21.039Z,16.20
2022-12-23T06:19:47.937Z,16.24
2022-12-23T06:22:15.039Z,16.30
2022-12-23T06:24:41.917Z,16.34
2022-12-23T06:27:08.828Z,16.44
2022-12-23T06:29:35.662Z,16.50
2022-12-23T06:32:02.620Z,16.56
2022-12-23T06:34:29.588Z,16.62
2022-12-23T06:36:56.407Z,16.67
2022-12-23T06:39:23.426Z,16.70
2022-12-23T06:41:50.311Z,16.74
2022-12-23T06:44:17.190Z,16.75
2022-12-23T06:46:44.120Z,16.81
2022-12-23T06:49:13.441Z,16.87
2022-12-23T06:51:40.849Z,16.74
2022-12-23T06:54:09.567Z,16.95
2022-12-23T06:56:36.481Z,16.77
2022-12-23T06:59:03.334Z,16.97
2022-12-23T07:01:30.235Z,17.00
2022-12-23T07:03:57.541Z,17.06
2022-12-23T07:06:24.443Z,17.08
2022-12-23T07:08:51.308Z,17.05
2022-12-23T07:11:18.675Z,17.04
2022-12-23T07:13:45.907Z,17.20
2022-12-23T07:16:12.812Z,17.26
2022-12-23T07:18:39.805Z,17.30
2022-12-23T07:21:13.400Z,17.35
2022-12-23T07:23:45.035Z,17.38
2022-12-23T07:26:11.969Z,17.43
2022-12-23T07:28:39.774Z,17.41
2022-12-23T07:31:07.105Z,17.53
2022-12-23T07:33:34.021Z,17.64
2022-12-23T07:36:00.913Z,17.69
2022-12-23T07:38:27.825Z,17.71
2022-12-23T07:40:54.675Z,17.80
2022-12-23T07:43:21.537Z,17.82
2022-12-23T07:45:51.357Z,17.86
2022-12-23T07:48:22.730Z,17.92
2022-12-23T07:50:49.638Z,17.93
2022-12-23T07:53:16.472Z,17.97
2022-12-23T07:55:43.356Z,18.00
2022-12-23T07:58:10.266Z,18.06
2022-12-23T08:00:37.157Z,18.10
2022-12-23T08:03:04.055Z,18.13
2022-12-23T08:05:31.450Z,18.19
2022-12-23T08:07:58.425Z,18.24
2022-12-23T08:10:25.260Z,18.27
2022-12-23T08:12:52.174Z,18.32
2022-12-23T08:15:19.045Z,18.37
2022-12-23T08:17:45.912Z,18.41
2022-12-23T08:20:12.856Z,18.45
2022-12-23T08:22:39.756Z,18.46
2022-12-23T08:25:07.031Z,18.47
2022-12-23T08:27:34.667Z,18.58
2022-12-23T08:30:01.501Z,18.61
2022-12-23T08:32:28.476Z,18.69
2022-12-23T08:34:57.529Z,18.75
2022-12-23T08:37:24.875Z,18.63
2022-12-23T08:39:51.772Z,18.85
2022-12-23T08:42:19.808Z,18.94
2022-12-23T08:44:46.706Z,19.04
2022-12-23T08:47:13.601Z,19.13
2022-12-23T08:49:40.656Z,19.19
2022-12-23T08:52:07.589Z,19.26
2022-12-23T08:54:34.438Z,19.31
2022-12-23T08:57:01.311Z,19.30
2022-12-23T08:59:28.127Z,19.27
2022-12-23T09:01:55.134Z,19.34
2022-12-23T09:04:22.100Z,19.35
2022-12-23T09:06:48.939Z,19.39
2022-12-23T09:09:16.244Z,19.42
2022-12-23T09:11:43.202Z,19.46
2022-12-23T09:14:10.562Z,19.50
2022-12-23T09:16:37.896Z,19.53
2022-12-23T09:19:05.024Z,19.57
2022-12-23T09:21:31.908Z,19.61
2022-12-23T09:23:58.930Z,19.66
2022-12-23T09:26:27.407Z,19.70
2022-12-23T09:28:55.256Z,19.75
2022-12-23T09:31:22.774Z,19.79
2022-12-23T09:33:50.685Z,19.84
2022-12-23T09:36:17.603Z,19.88
2022-12-23T09:38:44.493Z,19.94
2022-12-23T09:41:17.285Z,20.01
2022-12-23T09:44:03.034Z,19.67
2022-12-23T09:46:30.145Z,20.08
2022-12-23T09:49:00.029Z,20.14
2022-12-23T09:51:26.935Z,20.15
2022-12-23T09:54:22.756Z,20.20
2022-12-23T09:57:02.718Z,20.23
2022-12-23T09:59:54.317Z,20.22
2022-12-23T10:02:30.411Z,20.04
2022-12-23T10:05:04.836Z,19.96
2022-12-23T10:07:36.185Z,20.30
2022-12-23T10:10:18.419Z,20.34
2022-12-23T10:12:47.262Z,20.42
2022-12-23T10:15:29.183Z,20.25
2022-12-23T10:17:58.044Z,20.46
2022-12-23T10:20:32.619Z,20.24
2022-12-23T10:22:59.277Z,20.56
2022-12-23T10:25:39.395Z,20.37
2022-12-23T10:28:06.270Z,20.59
2022-12-23T10:30:57.479Z,20.59
2022-12-23T10:33:29.112Z,20.58
2022-12-23T10:35:55.926Z,20.55
2022-12-23T10:38:28.688Z,20.58
2022-12-23T10:41:19.634Z,20.67
2022-12-23T10:43:58.565Z,20.70
2022-12-23T10:46:40.817Z,20.76
2022-12-23T10:49:30.436Z,20.79
2022-12-23T10:52:05.346Z,20.78
2022-12-23T10:54:33.547Z,20.76
2022-12-23T10:57:00.622Z,20.75
2022-12-23T10:59:29.532Z,20.60
2022-12-23T11:02:13.672Z,20.82
2022-12-23T11:04:45.936Z,20.87
2022-12-23T11:10:18.968Z,20.90
2022-12-23T11:12:48.453Z,20.73
2022-12-23T11:15:28.928Z,20.88
2022-12-23T11:18:00.705Z,20.90
2022-12-23T11:20:27.559Z,21.05
2022-12-23T11:22:56.121Z,21.08
2022-12-23T11:25:42.760Z,21.26
2022-12-23T11:28:16.762Z,20.99
2022-12-23T11:30:57.239Z,21.11
2022-12-23T11:33:29.042Z,21.08
2022-12-23T11:36:08.410Z,20.76
2022-12-23T11:38:36.303Z,20.90
2022-12-23T11:41:04.077Z,21.18
2022-12-23T11:43:30.921Z,21.02
2022-12-23T11:46:15.747Z,21.02
2022-12-23T11:48:42.520Z,21.20
2022-12-23T11:51:09.359Z,21.17
2022-12-23T11:53:36.791Z,21.17
2022-12-23T11:56:10.283Z,21.21
2022-12-23T11:58:48.964Z,21.24
2022-12-23T12:01:21.633Z,21.15
2022-12-23T12:03:55.864Z,21.39
2022-12-23T12:06:22.807Z,21.33
2022-12-23T12:08:51.345Z,21.32
2022-12-23T12:11:19.684Z,21.24
2022-12-23T12:13:48.790Z,21.34
2022-12-23T12:16:27.431Z,21.34
2022-12-23T12:18:56.089Z,21.39
2022-12-23T12:21:24.994Z,21.43
2022-12-23T12:24:17.064Z,21.44
2022-12-23T12:26:45.092Z,21.39
2022-12-23T12:29:41.833Z,21.38
2022-12-23T12:32:38.819Z,21.35
2022-12-23T12:35:07.306Z,21.34
2022-12-23T12:37:59.557Z,21.39
2022-12-23T12:40:36.494Z,21.42
2022-12-23T12:43:21.271Z,21.42
2022-12-23T12:45:50.860Z,21.35
2022-12-23T12:48:36.526Z,21.33
2022-12-23T12:51:17.277Z,21.34
2022-12-23T12:54:30.476Z,21.40
2022-12-23T12:56:58.103Z,21.43
2022-12-23T12:59:37.649Z,21.26
2022-12-23T13:02:26.173Z,21.43
2022-12-23T13:05:14.511Z,21.43
2022-12-23T13:07:52.237Z,21.44
2022-12-23T13:10:28.397Z,21.48
2022-12-23T13:13:04.318Z,21.54
2022-12-23T13:15:38.508Z,21.56
2022-12-23T13:18:11.118Z,21.56
2022-12-23T13:20:46.394Z,21.54
2022-12-23T13:23:45.220Z,21.18
2022-12-23T13:26:34.328Z,21.54
2022-12-23T13:29:33.696Z,21.58
2022-12-23T13:32:20.674Z,21.63
2022-12-23T13:35:04.018Z,21.35
2022-12-23T13:37:33.534Z,21.68
2022-12-23T13:40:18.893Z,21.69
2022-12-23T13:42:52.597Z,21.65
2022-12-23T13:45:19.741Z,21.61
2022-12-23T13:48:05.660Z,21.57
2022-12-23T13:50:57.211Z,21.51
2022-12-23T13:53:48.250Z,21.38
2022-12-23T13:56:18.182Z,21.22
2022-12-23T13:58:47.411Z,20.73
2022-12-23T14:01:14.192Z,21.01
2022-12-23T14:03:41.144Z,20.89
2022-12-23T14:06:40.526Z,20.74
2022-12-23T14:09:07.485Z,20.61
2022-12-23T14:11:34.322Z,20.69
2022-12-23T14:14:05.390Z,20.42
2022-12-23T14:16:50.522Z,20.48
2022-12-23T14:19:51.664Z,20.42
2022-12-23T14:22:24.791Z,20.30
2022-12-23T14:25:16.253Z,20.05
2022-12-23T14:27:55.737Z,19.89
2022-12-23T14:30:24.416Z,19.77
2022-12-23T14:32:52.342Z,19.67
2022-12-23T14:35:35.441Z,19.59
2022-12-23T14:38:15.861Z,19.50
2022-12-23T14:40:42.753Z,19.42
2022-12-23T14:43:23.405Z,19.33
2022-12-23T14:45:54.117Z,19.23
2022-12-23T14:48:36.958Z,19.15
2022-12-23T14:51:10.080Z,19.05
2022-12-23T14:53:38.169Z,18.94
2022-12-23T14:56:08.104Z,18.86
2022-12-23T14:58:47.213Z,18.79
2022-12-23T15:01:20.111Z,18.71
2022-12-23T15:03:49.177Z,18.76
2022-12-23T15:06:28.412Z,18.34
2022-12-23T15:08:55.414Z,18.40
2022-12-23T15:11:26.503Z,18.39
2022-12-23T15:13:53.440Z,18.59
2022-12-23T15:16:24.247Z,18.51
2022-12-23T15:18:58.981Z,18.39
2022-12-23T15:21:29.178Z,18.25
2022-12-23T15:23:56.103Z,18.03
2022-12-23T15:26:26.020Z,17.98
2022-12-23T15:28:52.929Z,17.89
2022-12-23T15:31:39.372Z,17.60
2022-12-23T15:34:17.133Z,17.35
2022-12-23T15:36:44.559Z,17.64
2022-12-23T15:39:18.729Z,17.59
2022-12-23T15:41:46.082Z,17.50
2022-12-23T15:44:15.529Z,17.44
2022-12-23T15:46:42.461Z,17.37
2022-12-23T15:49:11.114Z,17.34
2022-12-23T15:54:31.343Z,17.23
2022-12-23T15:56:59.148Z,17.21
2022-12-23T15:59:36.863Z,17.14
2022-12-23T16:02:59.095Z,17.02
2022-12-23T16:05:12.411Z,16.91
2022-12-23T16:07:40.801Z,16.63
2022-12-23T16:10:16.664Z,16.70
2022-12-23T16:12:43.540Z,16.63
2022-12-23T16:15:30.936Z,16.36
2022-12-23T16:18:19.360Z,16.42
2022-12-23T16:20:48.735Z,16.14
2022-12-23T16:23:15.593Z,16.07
2022-12-23T16:25:50.529Z,16.20
2022-12-23T16:28:28.023Z,16.15
2022-12-23T16:30:56.471Z,16.11
2022-12-23T16:33:37.048Z,16.07
2022-12-23T16:36:25.493Z,16.01
2022-12-23T16:38:53.552Z,15.93
2022-12-23T16:41:20.760Z,15.90
2022-12-23T16:43:52.515Z,15.88
2022-12-23T16:46:20.954Z,15.65
2022-12-23T16:49:05.140Z,15.77
2022-12-23T16:51:34.164Z,15.68
2022-12-23T16:54:01.636Z,15.61
2022-12-23T16:56:36.518Z,15.54
2022-12-23T16:59:03.902Z,15.46
2022-12-23T17:01:44.967Z,15.30
2022-12-23T17:04:12.151Z,15.38
2022-12-23T17:06:39.681Z,15.32
2022-12-23T17:09:07.834Z,15.23
2022-12-23T17:11:36.787Z,15.20
2022-12-23T17:14:07.972Z,15.14
2022-12-23T17:16:38.936Z,15.05
2022-12-23T17:19:05.876Z,14.98
2022-12-23T17:21:36.646Z,14.88
2022-12-23T17:24:14.428Z,14.86
2022-12-23T17:26:41.420Z,14.80
2022-12-23T17:29:09.790Z,14.73
2022-12-23T17:31:36.771Z,14.68
2022-12-23T17:34:03.883Z,14.60
2022-12-23T17:36:30.884Z,14.57
2022-12-23T17:38:57.838Z,14.52
2022-12-23T17:41:29.129Z,14.47
2022-12-23T17:43:56.043Z,14.44
2022-12-23T17:46:23.282Z,14.33
2022-12-23T17:48:50.273Z,14.14
2022-12-23T17:51:19.067Z,14.25
2022-12-23T17:53:47.444Z,14.24
2022-12-23T17:56:19.390Z,14.09
2022-12-23T17:58:47.228Z,14.20
2022-12-23T18:01:19.944Z,14.16
2022-12-23T18:03:47.040Z,14.27
2022-12-23T18:06:14.944Z,14.10
2022-12-23T18:08:41.806Z,14.12
2022-12-23T18:11:09.079Z,14.08
2022-12-23T18:13:36.328Z,13.87
2022-12-23T18:16:03.309Z,14.03
2022-12-23T18:18:39.269Z,13.59
2022-12-23T18:21:13.100Z,13.94
2022-12-23T18:23:40.004Z,13.85
2022-12-23T18:26:06.885Z,13.79
2022-12-23T18:28:33.790Z,13.82
2022-12-23T18:31:00.679Z,13.78
2022-12-23T18:33:29.423Z,13.71
2022-12-23T18:35:56.427Z,13.46
2022-12-23T18:38:23.311Z,13.63
2022-12-23T18:40:53.897Z,13.59
2022-12-23T18:43:24.317Z,13.56
2022-12-23T18:45:53.636Z,13.48
2022-12-23T18:48:21.573Z,13.44
2022-12-23T18:50:48.620Z,13.26
2022-12-23T18:53:23.381Z,13.35
2022-12-23T18:55:51.118Z,13.30
2022-12-23T18:58:18.116Z,13.24
2022-12-23T19:00:45.018Z,13.19
2022-12-23T19:03:25.782Z,13.15
2022-12-23T19:05:53.235Z,12.84
2022-12-23T19:08:26.107Z,12.66
2022-12-23T19:10:54.425Z,12.78
2022-12-23T19:13:21.333Z,12.97
2022-12-23T19:15:48.258Z,12.93
2022-12-23T19:18:16.431Z,12.88
2022-12-23T19:20:44.102Z,12.63
2022-12-23T19:23:11.014Z,12.88
2022-12-23T19:25:40.986Z,12.91
2022-12-23T19:28:08.186Z,12.87
2022-12-23T19:30:35.110Z,12.76
2022-12-23T19:33:02.032Z,12.66
2022-12-23T19:35:28.892Z,12.85
2022-12-23T19:37:55.845Z,12.84
2022-12-23T19:40:22.704Z,12.83
2022-12-23T19:42:49.541Z,12.79
2022-12-23T19:45:17.174Z,12.56
2022-12-23T19:47:44.121Z,12.73
2022-12-23T19:50:11.253Z,12.73
2022-12-23T19:52:38.083Z,12.70
2022-12-23T19:55:05.477Z,12.67
2022-12-23T19:57:33.374Z,12.56
2022-12-23T20:00:01.847Z,12.50
2022-12-23T20:02:38.986Z,12.50
2022-12-23T20:05:06.170Z,12.48
2022-12-23T20:07:35.299Z,12.25
2022-12-23T20:10:02.594Z,12.44
2022-12-23T20:12:29.419Z,12.39
2022-12-23T20:14:56.270Z,12.32
2022-12-23T20:17:23.169Z,12.28
2022-12-23T20:19:49.995Z,12.22
2022-12-23T20:22:16.880Z,12.18
2022-12-23T20:24:43.820Z,12.14
2022-12-23T20:27:12.100Z,12.10
2022-12-23T20:29:40.084Z,12.07
2022-12-23T20:32:06.956Z,12.03
2022-12-23T20:34:39.157Z,12.00
2022-12-23T20:37:06.716Z,11.76
2022-12-23T20:39:33.581Z,11.96
2022-12-23T20:42:00.456Z,11.93
2022-12-23T20:44:36.645Z,11.94
2022-12-23T20:47:05.574Z,11.93
2022-12-23T20:49:32.665Z,11.87
2022-12-23T20:51:59.664Z,11.83
2022-12-23T20:54:32.039Z,11.82
2022-12-23T20:56:59.961Z,11.78
2022-12-23T20:59:26.851Z,11.76
2022-12-23T21:01:55.317Z,11.70
2022-12-23T21:04:22.798Z,11.73
2022-12-23T21:06:49.742Z,11.69
2022-12-23T21:09:17.037Z,11.65
2022-12-23T21:11:45.254Z,11.64
2022-12-23T21:14:12.139Z,11.62
2022-12-23T21:16:39.165Z,11.59
2022-12-23T21:19:07.298Z,11.52
2022-12-23T21:21:34.205Z,11.51
2022-12-23T21:24:02.159Z,11.49
2022-12-23T21:26:29.855Z,11.45
2022-12-23T21:29:00.878Z,11.43
2022-12-23T21:31:28.947Z,11.39
2022-12-23T21:33:55.871Z,11.21
2022-12-23T21:36:24.329Z,11.37
2022-12-23T21:38:51.443Z,11.34
2022-12-23T21:41:23.002Z,11.10
2022-12-23T21:43:50.095Z,11.37
2022-12-23T21:46:18.626Z,11.40
2022-12-23T21:48:45.688Z,11.33
2022-12-23T21:51:13.385Z,11.38
2022-12-23T21:53:40.699Z,11.39
2022-12-23T21:56:12.109Z,11.39
2022-12-23T21:58:39.222Z,11.34
2022-12-23T22:01:10.035Z,11.24
2022-12-23T22:03:37.046Z,11.30
2022-12-23T22:06:10.962Z,11.30
2022-12-23T22:08:39.003Z,11.27
2022-12-23T22:11:16.553Z,11.24
2022-12-23T22:13:43.703Z,10.99
2022-12-23T22:16:16.136Z,11.19
2022-12-23T22:18:43.122Z,10.87
2022-12-23T22:21:11.941Z,11.11
2022-12-23T22:23:38.878Z,11.10
2022-12-23T22:26:06.096Z,11.07
2022-12-23T22:28:33.604Z,10.85
2022-12-23T22:31:24.421Z,11.01
2022-12-23T22:33:51.385Z,11.09
2022-12-23T22:36:18.271Z,11.05
2022-12-23T22:38:50.456Z,11.04
2022-12-23T22:41:17.401Z,10.98
2022-12-23T22:43:44.217Z,10.96
2022-12-23T22:46:11.162Z,10.93
2022-12-23T22:48:38.302Z,10.90
2022-12-23T22:51:14.623Z,10.88
2022-12-23T22:53:41.572Z,10.68
2022-12-23T22:56:08.658Z,10.81
2022-12-23T22:58:35.479Z,10.72
2022-12-23T23:01:02.400Z,10.77
2022-12-23T23:03:29.710Z,10.76
2022-12-23T23:06:00.911Z,10.57
2022-12-23T23:08:28.584Z,10.71
2022-12-23T23:10:57.056Z,10.68
2022-12-23T23:13:25.292Z,10.65
2022-12-23T23:15:52.350Z,10.64
2022-12-23T23:18:19.165Z,10.61
2022-12-23T23:20:45.991Z,10.59
2022-12-23T23:23:12.959Z,10.54
2022-12-23T23:25:39.872Z,10.52
2022-12-23T23:28:06.732Z,10.48
2022-12-23T23:30:33.820Z,10.31
2022-12-23T23:33:00.663Z,10.50
2022-12-23T23:35:27.527Z,10.41
2022-12-23T23:37:54.423Z,10.47
2022-12-23T23:40:21.285Z,10.41
2022-12-23T23:42:48.169Z,10.47
2022-12-23T23:45:15.101Z,10.46
2022-12-23T23:47:41.954Z,10.44
2022-12-23T23:50:09.430Z,10.48
2022-12-23T23:52:36.337Z,10.43
2022-12-23T23:55:03.211Z,10.42
2022-12-23T23:57:30.139Z,10.46
2022-12-23T23:59:57.014Z,10.45
